sensor_id;sensor_type;location;lat;lon;timestamp;temperature;humidity
14119;DHT22;7138;49.246;9.100;2023-03-14T00:00:24;9.70;99.90
14119;DHT22;7138;49.246;9.100;2023-03-14T00:02:51;9.70;99.90
14119;DHT22;7138;49.246;9.100;2023-03-14T00:05:17;9.70;99.90
14119;DHT22;7138;49.246;9.100;2023-03-14T00:07:44;9.60;99.90
14119;DHT22;7138;49.246;9.100;2023-03-14T00:10:11;9.60;99.90
14119;DHT22;7138;49.246;9.100;2023-03-14T00:12:39;9.80;99.90
14119;DHT22;7138;49.246;9.100;2023-03-14T00:15:05;9.80;99.90
14119;DHT22;7138;49.246;9.100;2023-03-14T00:17:32;9.80;99.90
14119;DHT22;7138;49.246;9.100;2023-03-14T00:19:58;9.60;99.90
14119;DHT22;7138;49.246;9.100;2023-03-14T00:22:29;9.70;99.90
14119;DHT22;7138;49.246;9.100;2023-03-14T00:24:56;9.60;99.90
14119;DHT22;7138;49.246;9.100;2023-03-14T00:27:22;9.60;99.90
14119;DHT22;7138;49.246;9.100;2023-03-14T00:29:48;9.50;99.90
14119;DHT22;7138;49.246;9.100;2023-03-14T00:32:14;9.50;99.90
14119;DHT22;7138;49.246;9.100;2023-03-14T00:34:39;9.60;99.90
14119;DHT22;7138;49.246;9.100;2023-03-14T00:37:05;9.60;99.90
14119;DHT22;7138;49.246;9.100;2023-03-14T00:39:31;9.60;99.90
14119;DHT22;7138;49.246;9.100;2023-03-14T00:41:58;9.50;99.90
14119;DHT22;7138;49.246;9.100;2023-03-14T00:44:24;9.50;99.90
14119;DHT22;7138;49.246;9.100;2023-03-14T00:46:50;9.50;99.90
14119;DHT22;7138;49.246;9.100;2023-03-14T00:49:15;9.60;99.90
14119;DHT22;7138;49.246;9.100;2023-03-14T00:51:41;9.50;99.90
14119;DHT22;7138;49.246;9.100;2023-03-14T00:54:07;9.50;99.90
14119;DHT22;7138;49.246;9.100;2023-03-14T00:56:32;9.50;99.90
14119;DHT22;7138;49.246;9.100;2023-03-14T00:58:59;9.50;99.90
14119;DHT22;7138;49.246;9.100;2023-03-14T01:01:25;9.50;99.90
14119;DHT22;7138;49.246;9.100;2023-03-14T01:03:51;9.60;99.90
14119;DHT22;7138;49.246;9.100;2023-03-14T01:06:19;9.60;99.90
14119;DHT22;7138;49.246;9.100;2023-03-14T01:08:47;9.60;99.90
14119;DHT22;7138;49.246;9.100;2023-03-14T01:11:14;9.60;99.90
14119;DHT22;7138;49.246;9.100;2023-03-14T01:13:42;9.50;99.90
14119;DHT22;7138;49.246;9.100;2023-03-14T01:16:10;9.50;99.90
14119;DHT22;7138;49.246;9.100;2023-03-14T01:18:37;9.60;99.90
14119;DHT22;7138;49.246;9.100;2023-03-14T01:21:11;9.60;99.90
14119;DHT22;7138;49.246;9.100;2023-03-14T01:23:38;9.60;99.90
14119;DHT22;7138;49.246;9.100;2023-03-14T01:26:04;9.50;99.90
14119;DHT22;7138;49.246;9.100;2023-03-14T01:28:30;9.60;99.90
14119;DHT22;7138;49.246;9.100;2023-03-14T01:30:55;9.50;99.90
14119;DHT22;7138;49.246;9.100;2023-03-14T01:33:22;9.60;99.90
14119;DHT22;7138;49.246;9.100;2023-03-14T01:35:49;9.60;99.90
14119;DHT22;7138;49.246;9.100;2023-03-14T01:38:15;9.60;99.90
14119;DHT22;7138;49.246;9.100;2023-03-14T01:40:41;9.60;99.90
14119;DHT22;7138;49.246;9.100;2023-03-14T01:43:12;9.60;99.90
14119;DHT22;7138;49.246;9.100;2023-03-14T01:46:01;9.60;99.90
14119;DHT22;7138;49.246;9.100;2023-03-14T01:48:55;9.60;99.90
14119;DHT22;7138;49.246;9.100;2023-03-14T01:51:27;9.60;99.90
14119;DHT22;7138;49.246;9.100;2023-03-14T01:53:57;9.50;99.90
14119;DHT22;7138;49.246;9.100;2023-03-14T01:56:27;9.50;99.90
14119;DHT22;7138;49.246;9.100;2023-03-14T01:58:53;9.50;99.90
14119;DHT22;7138;49.246;9.100;2023-03-14T02:01:20;9.50;99.90
14119;DHT22;7138;49.246;9.100;2023-03-14T02:03:50;9.50;99.90
14119;DHT22;7138;49.246;9.100;2023-03-14T02:06:21;9.50;99.90
14119;DHT22;7138;49.246;9.100;2023-03-14T02:08:50;9.50;99.90
14119;DHT22;7138;49.246;9.100;2023-03-14T02:11:16;9.50;99.90
14119;DHT22;7138;49.246;9.100;2023-03-14T02:13:43;9.50;99.90
14119;DHT22;7138;49.246;9.100;2023-03-14T02:16:09;9.50;99.90
14119;DHT22;7138;49.246;9.100;2023-03-14T02:18:35;9.50;99.90
14119;DHT22;7138;49.246;9.100;2023-03-14T02:21:03;9.40;99.90
14119;DHT22;7138;49.246;9.100;2023-03-14T02:23:36;9.40;99.90
14119;DHT22;7138;49.246;9.100;2023-03-14T02:26:10;9.40;99.90
14119;DHT22;7138;49.246;9.100;2023-03-14T02:28:43;9.50;99.90
14119;DHT22;7138;49.246;9.100;2023-03-14T02:31:09;9.50;99.90
14119;DHT22;7138;49.246;9.100;2023-03-14T02:33:35;9.70;99.90
14119;DHT22;7138;49.246;9.100;2023-03-14T02:36:04;9.60;99.90
14119;DHT22;7138;49.246;9.100;2023-03-14T02:38:33;9.60;99.90
14119;DHT22;7138;49.246;9.100;2023-03-14T02:41:03;9.60;99.90
14119;DHT22;7138;49.246;9.100;2023-03-14T02:43:29;9.70;99.90
14119;DHT22;7138;49.246;9.100;2023-03-14T02:45:56;9.60;99.90
14119;DHT22;7138;49.246;9.100;2023-03-14T02:48:24;9.60;99.90
14119;DHT22;7138;49.246;9.100;2023-03-14T02:50:52;9.60;99.90
14119;DHT22;7138;49.246;9.100;2023-03-14T02:53:21;9.60;99.90
14119;DHT22;7138;49.246;9.100;2023-03-14T02:55:50;9.60;99.90
14119;DHT22;7138;49.246;9.100;2023-03-14T02:58:16;9.50;99.90
14119;DHT22;7138;49.246;9.100;2023-03-14T03:00:43;9.50;99.90
14119;DHT22;7138;49.246;9.100;2023-03-14T03:03:10;9.60;99.90
14119;DHT22;7138;49.246;9.100;2023-03-14T03:05:36;9.50;99.90
14119;DHT22;7138;49.246;9.100;2023-03-14T03:08:02;9.50;99.90
14119;DHT22;7138;49.246;9.100;2023-03-14T03:10:28;9.50;99.90
14119;DHT22;7138;49.246;9.100;2023-03-14T03:12:54;9.50;99.90
14119;DHT22;7138;49.246;9.100;2023-03-14T03:15:20;9.50;99.90
14119;DHT22;7138;49.246;9.100;2023-03-14T03:17:46;9.50;99.90
14119;DHT22;7138;49.246;9.100;2023-03-14T03:20:13;9.50;99.90
14119;DHT22;7138;49.246;9.100;2023-03-14T03:22:39;9.40;99.90
14119;DHT22;7138;49.246;9.100;2023-03-14T03:25:05;9.40;99.90
14119;DHT22;7138;49.246;9.100;2023-03-14T03:27:33;9.40;99.90
14119;DHT22;7138;49.246;9.100;2023-03-14T03:30:00;9.40;99.90
14119;DHT22;7138;49.246;9.100;2023-03-14T03:32:26;9.30;99.90
14119;DHT22;7138;49.246;9.100;2023-03-14T03:34:52;9.30;99.90
14119;DHT22;7138;49.246;9.100;2023-03-14T03:37:19;9.30;99.90
14119;DHT22;7138;49.246;9.100;2023-03-14T03:39:45;9.30;99.90
14119;DHT22;7138;49.246;9.100;2023-03-14T03:42:10;9.30;99.90
14119;DHT22;7138;49.246;9.100;2023-03-14T03:44:36;9.30;99.90
14119;DHT22;7138;49.246;9.100;2023-03-14T03:47:02;9.30;99.90
14119;DHT22;7138;49.246;9.100;2023-03-14T03:49:28;9.30;99.90
14119;DHT22;7138;49.246;9.100;2023-03-14T03:51:54;9.30;99.90
14119;DHT22;7138;49.246;9.100;2023-03-14T03:54:21;9.30;99.90
14119;DHT22;7138;49.246;9.100;2023-03-14T03:56:47;9.30;99.90
14119;DHT22;7138;49.246;9.100;2023-03-14T03:59:13;9.30;99.90
14119;DHT22;7138;49.246;9.100;2023-03-14T04:01:38;9.30;99.90
14119;DHT22;7138;49.246;9.100;2023-03-14T04:04:04;9.20;99.90
14119;DHT22;7138;49.246;9.100;2023-03-14T04:06:30;9.20;99.90
14119;DHT22;7138;49.246;9.100;2023-03-14T04:08:56;9.20;99.90
14119;DHT22;7138;49.246;9.100;2023-03-14T04:11:23;9.20;99.90
14119;DHT22;7138;49.246;9.100;2023-03-14T04:13:49;9.10;99.90
14119;DHT22;7138;49.246;9.100;2023-03-14T04:16:16;9.20;99.90
14119;DHT22;7138;49.246;9.100;2023-03-14T04:18:43;9.20;99.90
14119;DHT22;7138;49.246;9.100;2023-03-14T04:21:09;9.30;99.90
14119;DHT22;7138;49.246;9.100;2023-03-14T04:23:35;9.30;99.90
14119;DHT22;7138;49.246;9.100;2023-03-14T04:26:01;9.30;99.90
14119;DHT22;7138;49.246;9.100;2023-03-14T04:28:28;9.20;99.90
14119;DHT22;7138;49.246;9.100;2023-03-14T04:30:53;9.30;99.90
14119;DHT22;7138;49.246;9.100;2023-03-14T04:33:19;9.20;99.90
14119;DHT22;7138;49.246;9.100;2023-03-14T04:35:45;9.10;99.90
14119;DHT22;7138;49.246;9.100;2023-03-14T04:38:11;9.20;99.90
14119;DHT22;7138;49.246;9.100;2023-03-14T04:40:38;9.20;99.90
14119;DHT22;7138;49.246;9.100;2023-03-14T04:43:04;9.20;99.90
14119;DHT22;7138;49.246;9.100;2023-03-14T04:45:32;9.10;99.90
14119;DHT22;7138;49.246;9.100;2023-03-14T04:47:57;9.20;99.90
14119;DHT22;7138;49.246;9.100;2023-03-14T04:50:23;9.20;99.90
14119;DHT22;7138;49.246;9.100;2023-03-14T04:52:49;9.10;99.90
14119;DHT22;7138;49.246;9.100;2023-03-14T04:55:15;9.10;99.90
14119;DHT22;7138;49.246;9.100;2023-03-14T04:57:40;9.10;99.90
14119;DHT22;7138;49.246;9.100;2023-03-14T05:00:07;9.10;99.90
14119;DHT22;7138;49.246;9.100;2023-03-14T05:02:34;9.10;99.90
14119;DHT22;7138;49.246;9.100;2023-03-14T05:05:00;9.00;99.90
14119;DHT22;7138;49.246;9.100;2023-03-14T05:07:26;9.10;99.90
14119;DHT22;7138;49.246;9.100;2023-03-14T05:09:52;9.20;99.90
14119;DHT22;7138;49.246;9.100;2023-03-14T05:12:18;9.20;99.90
14119;DHT22;7138;49.246;9.100;2023-03-14T05:14:44;9.20;99.90
14119;DHT22;7138;49.246;9.100;2023-03-14T05:17:10;9.20;99.90
14119;DHT22;7138;49.246;9.100;2023-03-14T05:19:38;9.20;99.90
14119;DHT22;7138;49.246;9.100;2023-03-14T05:22:03;9.10;99.90
14119;DHT22;7138;49.246;9.100;2023-03-14T05:24:29;9.00;99.90
14119;DHT22;7138;49.246;9.100;2023-03-14T05:26:55;9.10;99.90
14119;DHT22;7138;49.246;9.100;2023-03-14T05:29:20;9.10;99.90
14119;DHT22;7138;49.246;9.100;2023-03-14T05:31:46;9.10;99.90
14119;DHT22;7138;49.246;9.100;2023-03-14T05:34:12;9.10;99.90
14119;DHT22;7138;49.246;9.100;2023-03-14T05:36:39;9.00;99.90
14119;DHT22;7138;49.246;9.100;2023-03-14T05:39:04;9.00;99.90
14119;DHT22;7138;49.246;9.100;2023-03-14T05:41:30;9.00;99.90
14119;DHT22;7138;49.246;9.100;2023-03-14T05:43:56;9.00;99.90
14119;DHT22;7138;49.246;9.100;2023-03-14T05:46:21;9.00;99.90
14119;DHT22;7138;49.246;9.100;2023-03-14T05:48:47;8.90;99.90
14119;DHT22;7138;49.246;9.100;2023-03-14T05:51:13;9.00;99.90
14119;DHT22;7138;49.246;9.100;2023-03-14T05:53:40;9.00;99.90
14119;DHT22;7138;49.246;9.100;2023-03-14T05:56:06;9.00;99.90
14119;DHT22;7138;49.246;9.100;2023-03-14T05:58:32;9.00;99.90
14119;DHT22;7138;49.246;9.100;2023-03-14T06:01:01;9.00;99.90
14119;DHT22;7138;49.246;9.100;2023-03-14T06:03:27;8.90;99.90
14119;DHT22;7138;49.246;9.100;2023-03-14T06:05:53;8.90;99.90
14119;DHT22;7138;49.246;9.100;2023-03-14T06:08:18;9.00;99.90
14119;DHT22;7138;49.246;9.100;2023-03-14T06:10:45;8.90;99.90
14119;DHT22;7138;49.246;9.100;2023-03-14T06:13:11;9.00;99.90
14119;DHT22;7138;49.246;9.100;2023-03-14T06:15:37;9.20;99.90
14119;DHT22;7138;49.246;9.100;2023-03-14T06:18:03;9.10;99.90
14119;DHT22;7138;49.246;9.100;2023-03-14T06:20:28;9.10;99.90
14119;DHT22;7138;49.246;9.100;2023-03-14T06:22:54;9.20;99.90
14119;DHT22;7138;49.246;9.100;2023-03-14T06:25:20;9.20;99.90
14119;DHT22;7138;49.246;9.100;2023-03-14T06:27:47;9.20;99.90
14119;DHT22;7138;49.246;9.100;2023-03-14T06:30:13;9.20;99.90
14119;DHT22;7138;49.246;9.100;2023-03-14T06:32:38;9.30;99.90
14119;DHT22;7138;49.246;9.100;2023-03-14T06:35:04;9.40;99.90
14119;DHT22;7138;49.246;9.100;2023-03-14T06:37:30;9.40;99.90
14119;DHT22;7138;49.246;9.100;2023-03-14T06:39:59;9.50;99.90
14119;DHT22;7138;49.246;9.100;2023-03-14T06:42:25;9.50;99.90
14119;DHT22;7138;49.246;9.100;2023-03-14T06:44:52;9.60;99.90
14119;DHT22;7138;49.246;9.100;2023-03-14T06:47:18;9.60;99.90
14119;DHT22;7138;49.246;9.100;2023-03-14T06:49:43;9.60;99.90
14119;DHT22;7138;49.246;9.100;2023-03-14T06:52:09;9.80;99.90
14119;DHT22;7138;49.246;9.100;2023-03-14T06:54:35;9.90;99.90
14119;DHT22;7138;49.246;9.100;2023-03-14T06:57:00;10.00;99.90
14119;DHT22;7138;49.246;9.100;2023-03-14T06:59:26;10.10;99.90
14119;DHT22;7138;49.246;9.100;2023-03-14T07:01:53;10.10;99.90
14119;DHT22;7138;49.246;9.100;2023-03-14T07:04:19;10.10;99.90
14119;DHT22;7138;49.246;9.100;2023-03-14T07:06:44;10.20;99.90
14119;DHT22;7138;49.246;9.100;2023-03-14T07:09:11;10.20;99.90
14119;DHT22;7138;49.246;9.100;2023-03-14T07:11:37;10.20;99.90
14119;DHT22;7138;49.246;9.100;2023-03-14T07:14:03;10.30;99.90
14119;DHT22;7138;49.246;9.100;2023-03-14T07:16:29;10.40;99.90
14119;DHT22;7138;49.246;9.100;2023-03-14T07:18:59;10.50;99.90
14119;DHT22;7138;49.246;9.100;2023-03-14T07:21:25;10.50;99.90
14119;DHT22;7138;49.246;9.100;2023-03-14T07:23:51;10.40;99.90
14119;DHT22;7138;49.246;9.100;2023-03-14T07:26:17;10.40;99.90
14119;DHT22;7138;49.246;9.100;2023-03-14T07:28:43;10.40;99.90
14119;DHT22;7138;49.246;9.100;2023-03-14T07:31:08;10.50;99.90
14119;DHT22;7138;49.246;9.100;2023-03-14T07:33:34;10.50;99.90
14119;DHT22;7138;49.246;9.100;2023-03-14T07:36:01;10.50;99.90
14119;DHT22;7138;49.246;9.100;2023-03-14T07:38:28;10.60;99.90
14119;DHT22;7138;49.246;9.100;2023-03-14T07:40:57;10.70;99.90
14119;DHT22;7138;49.246;9.100;2023-03-14T07:43:23;10.70;99.90
14119;DHT22;7138;49.246;9.100;2023-03-14T07:45:49;10.80;99.90
14119;DHT22;7138;49.246;9.100;2023-03-14T07:48:15;11.00;99.90
14119;DHT22;7138;49.246;9.100;2023-03-14T07:50:40;11.20;99.90
14119;DHT22;7138;49.246;9.100;2023-03-14T07:53:07;12.00;99.90
14119;DHT22;7138;49.246;9.100;2023-03-14T07:55:33;12.50;99.90
14119;DHT22;7138;49.246;9.100;2023-03-14T07:57:59;12.70;99.90
14119;DHT22;7138;49.246;9.100;2023-03-14T08:00:24;12.90;99.90
14119;DHT22;7138;49.246;9.100;2023-03-14T08:02:50;12.60;99.90
14119;DHT22;7138;49.246;9.100;2023-03-14T08:05:16;11.90;99.90
14119;DHT22;7138;49.246;9.100;2023-03-14T08:07:42;11.80;99.90
14119;DHT22;7138;49.246;9.100;2023-03-14T08:10:10;11.60;99.90
14119;DHT22;7138;49.246;9.100;2023-03-14T08:12:36;11.40;99.90
14119;DHT22;7138;49.246;9.100;2023-03-14T08:15:01;11.50;99.90
14119;DHT22;7138;49.246;9.100;2023-03-14T08:17:27;11.50;99.90
14119;DHT22;7138;49.246;9.100;2023-03-14T08:19:53;11.80;99.90
14119;DHT22;7138;49.246;9.100;2023-03-14T08:22:18;12.30;99.90
14119;DHT22;7138;49.246;9.100;2023-03-14T08:24:44;12.30;99.90
14119;DHT22;7138;49.246;9.100;2023-03-14T08:27:11;12.20;99.90
14119;DHT22;7138;49.246;9.100;2023-03-14T08:29:37;11.80;99.90
14119;DHT22;7138;49.246;9.100;2023-03-14T08:32:03;11.70;99.90
14119;DHT22;7138;49.246;9.100;2023-03-14T08:34:29;11.70;99.90
14119;DHT22;7138;49.246;9.100;2023-03-14T08:36:54;11.50;99.90
14119;DHT22;7138;49.246;9.100;2023-03-14T08:39:22;11.30;99.90
14119;DHT22;7138;49.246;9.100;2023-03-14T08:41:49;11.20;99.90
14119;DHT22;7138;49.246;9.100;2023-03-14T08:44:16;11.00;99.90
14119;DHT22;7138;49.246;9.100;2023-03-14T08:46:41;10.90;99.90
14119;DHT22;7138;49.246;9.100;2023-03-14T08:49:07;10.80;99.90
14119;DHT22;7138;49.246;9.100;2023-03-14T08:51:33;10.80;99.90
14119;DHT22;7138;49.246;9.100;2023-03-14T08:53:59;10.80;99.90
14119;DHT22;7138;49.246;9.100;2023-03-14T08:56:24;10.80;99.90
14119;DHT22;7138;49.246;9.100;2023-03-14T08:58:50;10.80;99.90
14119;DHT22;7138;49.246;9.100;2023-03-14T09:01:17;10.90;99.90
14119;DHT22;7138;49.246;9.100;2023-03-14T09:03:44;10.90;99.90
14119;DHT22;7138;49.246;9.100;2023-03-14T09:06:10;10.80;99.90
14119;DHT22;7138;49.246;9.100;2023-03-14T09:08:36;10.90;99.90
14119;DHT22;7138;49.246;9.100;2023-03-14T09:11:02;10.90;99.90
14119;DHT22;7138;49.246;9.100;2023-03-14T09:13:28;11.00;99.90
14119;DHT22;7138;49.246;9.100;2023-03-14T09:15:54;11.00;99.90
14119;DHT22;7138;49.246;9.100;2023-03-14T09:18:22;11.00;99.90
14119;DHT22;7138;49.246;9.100;2023-03-14T09:20:48;11.10;99.90
14119;DHT22;7138;49.246;9.100;2023-03-14T09:23:14;11.00;99.90
14119;DHT22;7138;49.246;9.100;2023-03-14T09:25:40;11.20;99.90
14119;DHT22;7138;49.246;9.100;2023-03-14T09:28:05;11.40;99.90
14119;DHT22;7138;49.246;9.100;2023-03-14T09:30:31;11.60;99.90
14119;DHT22;7138;49.246;9.100;2023-03-14T09:32:57;12.00;99.90
14119;DHT22;7138;49.246;9.100;2023-03-14T09:35:25;12.20;99.90
14119;DHT22;7138;49.246;9.100;2023-03-14T09:37:51;12.20;99.90
14119;DHT22;7138;49.246;9.100;2023-03-14T09:40:17;11.80;99.90
14119;DHT22;7138;49.246;9.100;2023-03-14T09:42:45;11.60;99.90
14119;DHT22;7138;49.246;9.100;2023-03-14T09:45:15;11.70;99.90
14119;DHT22;7138;49.246;9.100;2023-03-14T09:47:48;11.60;99.90
14119;DHT22;7138;49.246;9.100;2023-03-14T09:50:15;11.30;99.90
14119;DHT22;7138;49.246;9.100;2023-03-14T09:52:44;11.00;99.90
14119;DHT22;7138;49.246;9.100;2023-03-14T09:55:13;10.90;99.90
14119;DHT22;7138;49.246;9.100;2023-03-14T09:57:41;11.20;99.90
14119;DHT22;7138;49.246;9.100;2023-03-14T10:00:13;11.20;99.90
14119;DHT22;7138;49.246;9.100;2023-03-14T10:02:41;11.20;99.90
14119;DHT22;7138;49.246;9.100;2023-03-14T10:05:13;11.40;99.90
14119;DHT22;7138;49.246;9.100;2023-03-14T10:07:40;11.40;99.90
14119;DHT22;7138;49.246;9.100;2023-03-14T10:10:09;11.60;99.90
14119;DHT22;7138;49.246;9.100;2023-03-14T10:12:37;11.50;99.90
14119;DHT22;7138;49.246;9.100;2023-03-14T10:15:05;11.60;99.90
14119;DHT22;7138;49.246;9.100;2023-03-14T10:17:37;11.60;99.90
14119;DHT22;7138;49.246;9.100;2023-03-14T10:20:04;11.70;99.90
14119;DHT22;7138;49.246;9.100;2023-03-14T10:22:31;12.10;99.90
14119;DHT22;7138;49.246;9.100;2023-03-14T10:25:06;12.40;99.90
14119;DHT22;7138;49.246;9.100;2023-03-14T10:27:50;12.10;99.90
14119;DHT22;7138;49.246;9.100;2023-03-14T10:30:26;12.10;99.90
14119;DHT22;7138;49.246;9.100;2023-03-14T10:33:03;12.10;99.90
14119;DHT22;7138;49.246;9.100;2023-03-14T10:35:33;12.20;99.90
14119;DHT22;7138;49.246;9.100;2023-03-14T10:38:00;11.70;99.90
14119;DHT22;7138;49.246;9.100;2023-03-14T10:40:30;11.50;99.90
14119;DHT22;7138;49.246;9.100;2023-03-14T10:42:57;11.20;99.90
14119;DHT22;7138;49.246;9.100;2023-03-14T10:45:29;11.10;99.90
14119;DHT22;7138;49.246;9.100;2023-03-14T10:47:57;11.10;99.90
14119;DHT22;7138;49.246;9.100;2023-03-14T10:50:25;11.10;99.90
14119;DHT22;7138;49.246;9.100;2023-03-14T10:52:52;11.10;99.90
14119;DHT22;7138;49.246;9.100;2023-03-14T10:55:19;11.00;99.90
14119;DHT22;7138;49.246;9.100;2023-03-14T10:57:46;10.70;99.90
14119;DHT22;7138;49.246;9.100;2023-03-14T11:00:14;10.70;99.90
14119;DHT22;7138;49.246;9.100;2023-03-14T11:02:46;10.60;99.90
14119;DHT22;7138;49.246;9.100;2023-03-14T11:05:27;10.60;99.90
14119;DHT22;7138;49.246;9.100;2023-03-14T11:07:58;10.50;99.90
14119;DHT22;7138;49.246;9.100;2023-03-14T11:10:31;10.40;99.90
14119;DHT22;7138;49.246;9.100;2023-03-14T11:13:03;10.30;99.90
14119;DHT22;7138;49.246;9.100;2023-03-14T11:15:41;10.20;99.90
14119;DHT22;7138;49.246;9.100;2023-03-14T11:18:21;10.30;99.90
14119;DHT22;7138;49.246;9.100;2023-03-14T11:21:13;10.30;99.90
14119;DHT22;7138;49.246;9.100;2023-03-14T11:23:49;10.30;99.90
14119;DHT22;7138;49.246;9.100;2023-03-14T11:26:26;10.30;99.90
14119;DHT22;7138;49.246;9.100;2023-03-14T11:28:58;10.30;99.90
14119;DHT22;7138;49.246;9.100;2023-03-14T11:31:34;10.10;99.90
14119;DHT22;7138;49.246;9.100;2023-03-14T11:34:04;10.10;99.90
14119;DHT22;7138;49.246;9.100;2023-03-14T11:36:41;10.10;99.90
14119;DHT22;7138;49.246;9.100;2023-03-14T11:39:12;10.00;99.90
14119;DHT22;7138;49.246;9.100;2023-03-14T11:41:41;9.90;99.90
14119;DHT22;7138;49.246;9.100;2023-03-14T11:44:14;9.80;99.90
14119;DHT22;7138;49.246;9.100;2023-03-14T11:46:46;9.70;99.90
14119;DHT22;7138;49.246;9.100;2023-03-14T11:49:18;9.60;99.90
14119;DHT22;7138;49.246;9.100;2023-03-14T11:51:53;9.50;99.90
14119;DHT22;7138;49.246;9.100;2023-03-14T11:54:25;9.60;99.90
14119;DHT22;7138;49.246;9.100;2023-03-14T11:56:59;9.50;99.90
14119;DHT22;7138;49.246;9.100;2023-03-14T11:59:29;9.50;99.90
14119;DHT22;7138;49.246;9.100;2023-03-14T12:02:00;9.70;99.90
14119;DHT22;7138;49.246;9.100;2023-03-14T12:04:32;9.70;99.90
14119;DHT22;7138;49.246;9.100;2023-03-14T12:07:08;9.80;99.90
14119;DHT22;7138;49.246;9.100;2023-03-14T12:09:40;9.80;99.90
14119;DHT22;7138;49.246;9.100;2023-03-14T12:12:06;9.80;99.90
14119;DHT22;7138;49.246;9.100;2023-03-14T12:14:39;9.70;99.90
14119;DHT22;7138;49.246;9.100;2023-03-14T12:17:17;9.60;99.90
14119;DHT22;7138;49.246;9.100;2023-03-14T12:19:45;9.50;99.90
14119;DHT22;7138;49.246;9.100;2023-03-14T12:22:21;9.40;99.90
14119;DHT22;7138;49.246;9.100;2023-03-14T12:24:51;9.40;99.90
14119;DHT22;7138;49.246;9.100;2023-03-14T12:27:41;9.30;99.90
14119;DHT22;7138;49.246;9.100;2023-03-14T12:30:16;9.30;99.90
14119;DHT22;7138;49.246;9.100;2023-03-14T12:33:11;9.20;99.90
14119;DHT22;7138;49.246;9.100;2023-03-14T12:35:45;8.90;99.90
14119;DHT22;7138;49.246;9.100;2023-03-14T12:38:16;8.90;99.90
14119;DHT22;7138;49.246;9.100;2023-03-14T12:40:49;8.80;99.90
14119;DHT22;7138;49.246;9.100;2023-03-14T12:43:25;8.70;99.90
14119;DHT22;7138;49.246;9.100;2023-03-14T12:46:07;8.70;99.90
14119;DHT22;7138;49.246;9.100;2023-03-14T12:48:39;8.60;99.90
14119;DHT22;7138;49.246;9.100;2023-03-14T12:51:11;8.50;99.90
14119;DHT22;7138;49.246;9.100;2023-03-14T12:56:43;8.30;99.90
14119;DHT22;7138;49.246;9.100;2023-03-14T12:59:29;8.10;99.90
14119;DHT22;7138;49.246;9.100;2023-03-14T13:02:00;8.10;99.90
14119;DHT22;7138;49.246;9.100;2023-03-14T13:04:36;8.00;99.90
14119;DHT22;7138;49.246;9.100;2023-03-14T13:07:10;7.90;99.90
14119;DHT22;7138;49.246;9.100;2023-03-14T13:12:27;7.90;99.90
14119;DHT22;7138;49.246;9.100;2023-03-14T13:14:58;7.90;99.90
14119;DHT22;7138;49.246;9.100;2023-03-14T13:17:30;7.90;99.90
14119;DHT22;7138;49.246;9.100;2023-03-14T13:19:57;8.00;99.90
14119;DHT22;7138;49.246;9.100;2023-03-14T13:22:28;8.10;99.90
14119;DHT22;7138;49.246;9.100;2023-03-14T13:24:58;8.20;99.90
14119;DHT22;7138;49.246;9.100;2023-03-14T13:27:25;8.30;99.90
14119;DHT22;7138;49.246;9.100;2023-03-14T13:29:52;8.40;99.90
14119;DHT22;7138;49.246;9.100;2023-03-14T13:32:19;8.40;99.90
14119;DHT22;7138;49.246;9.100;2023-03-14T13:34:47;8.40;99.90
14119;DHT22;7138;49.246;9.100;2023-03-14T13:37:15;8.60;99.90
14119;DHT22;7138;49.246;9.100;2023-03-14T13:39:41;8.80;99.90
14119;DHT22;7138;49.246;9.100;2023-03-14T13:42:10;9.00;99.90
14119;DHT22;7138;49.246;9.100;2023-03-14T13:44:40;9.10;99.90
14119;DHT22;7138;49.246;9.100;2023-03-14T13:47:09;9.20;99.90
14119;DHT22;7138;49.246;9.100;2023-03-14T13:49:39;9.20;99.90
14119;DHT22;7138;49.246;9.100;2023-03-14T13:55:03;9.40;99.90
14119;DHT22;7138;49.246;9.100;2023-03-14T13:57:42;9.50;99.90
14119;DHT22;7138;49.246;9.100;2023-03-14T14:00:16;10.20;99.90
14119;DHT22;7138;49.246;9.100;2023-03-14T14:02:44;9.80;99.90
14119;DHT22;7138;49.246;9.100;2023-03-14T14:05:10;9.40;99.90
14119;DHT22;7138;49.246;9.100;2023-03-14T14:07:36;9.10;99.90
14119;DHT22;7138;49.246;9.100;2023-03-14T14:10:05;8.90;99.90
14119;DHT22;7138;49.246;9.100;2023-03-14T14:12:32;8.90;99.90
14119;DHT22;7138;49.246;9.100;2023-03-14T14:15:02;8.80;99.90
14119;DHT22;7138;49.246;9.100;2023-03-14T14:17:33;8.70;99.90
14119;DHT22;7138;49.246;9.100;2023-03-14T14:20:02;8.60;99.90
14119;DHT22;7138;49.246;9.100;2023-03-14T14:22:32;8.60;99.90
14119;DHT22;7138;49.246;9.100;2023-03-14T14:24:59;8.50;99.90
14119;DHT22;7138;49.246;9.100;2023-03-14T14:27:28;8.50;99.90
14119;DHT22;7138;49.246;9.100;2023-03-14T14:30:00;8.50;99.90
14119;DHT22;7138;49.246;9.100;2023-03-14T14:32:34;8.60;99.90
14119;DHT22;7138;49.246;9.100;2023-03-14T14:35:00;8.70;99.90
14119;DHT22;7138;49.246;9.100;2023-03-14T14:37:27;8.80;99.90
14119;DHT22;7138;49.246;9.100;2023-03-14T14:39:55;8.80;99.90
14119;DHT22;7138;49.246;9.100;2023-03-14T14:42:24;8.90;99.90
14119;DHT22;7138;49.246;9.100;2023-03-14T14:44:52;8.90;99.90
14119;DHT22;7138;49.246;9.100;2023-03-14T14:47:20;8.90;99.90
14119;DHT22;7138;49.246;9.100;2023-03-14T14:49:48;8.90;99.90
14119;DHT22;7138;49.246;9.100;2023-03-14T14:52:15;8.80;99.90
14119;DHT22;7138;49.246;9.100;2023-03-14T14:54:43;8.60;99.90
14119;DHT22;7138;49.246;9.100;2023-03-14T14:57:17;8.60;99.90
14119;DHT22;7138;49.246;9.100;2023-03-14T14:59:48;8.70;99.90
14119;DHT22;7138;49.246;9.100;2023-03-14T15:02:30;8.80;99.90
14119;DHT22;7138;49.246;9.100;2023-03-14T15:05:00;8.80;99.90
14119;DHT22;7138;49.246;9.100;2023-03-14T15:07:26;9.00;99.90
14119;DHT22;7138;49.246;9.100;2023-03-14T15:09:52;9.10;99.90
14119;DHT22;7138;49.246;9.100;2023-03-14T15:12:17;9.70;99.90
14119;DHT22;7138;49.246;9.100;2023-03-14T15:14:43;9.60;99.90
14119;DHT22;7138;49.246;9.100;2023-03-14T15:17:09;9.90;99.90
14119;DHT22;7138;49.246;9.100;2023-03-14T15:19:37;9.90;99.90
14119;DHT22;7138;49.246;9.100;2023-03-14T15:22:04;10.20;99.90
14119;DHT22;7138;49.246;9.100;2023-03-14T15:24:34;10.20;99.90
14119;DHT22;7138;49.246;9.100;2023-03-14T15:26:59;9.60;99.90
14119;DHT22;7138;49.246;9.100;2023-03-14T15:29:25;9.20;99.90
14119;DHT22;7138;49.246;9.100;2023-03-14T15:31:51;9.00;99.90
14119;DHT22;7138;49.246;9.100;2023-03-14T15:34:17;9.10;99.90
14119;DHT22;7138;49.246;9.100;2023-03-14T15:36:44;9.40;99.90
14119;DHT22;7138;49.246;9.100;2023-03-14T15:39:10;9.50;99.90
14119;DHT22;7138;49.246;9.100;2023-03-14T15:41:36;9.50;99.90
14119;DHT22;7138;49.246;9.100;2023-03-14T15:44:02;9.50;99.90
14119;DHT22;7138;49.246;9.100;2023-03-14T15:46:29;9.50;99.90
14119;DHT22;7138;49.246;9.100;2023-03-14T15:48:54;9.40;99.90
14119;DHT22;7138;49.246;9.100;2023-03-14T15:51:20;9.50;99.90
14119;DHT22;7138;49.246;9.100;2023-03-14T15:53:47;9.40;99.90
14119;DHT22;7138;49.246;9.100;2023-03-14T15:56:13;9.40;99.90
14119;DHT22;7138;49.246;9.100;2023-03-14T15:58:40;9.30;99.90
14119;DHT22;7138;49.246;9.100;2023-03-14T16:01:06;9.30;99.90
14119;DHT22;7138;49.246;9.100;2023-03-14T16:03:36;9.20;99.90
14119;DHT22;7138;49.246;9.100;2023-03-14T16:06:02;8.90;99.90
14119;DHT22;7138;49.246;9.100;2023-03-14T16:08:28;8.90;99.90
14119;DHT22;7138;49.246;9.100;2023-03-14T16:10:56;9.00;99.90